createdAt,value
2018-05-11T00:02:15.272Z,11.16
2018-05-11T00:05:19.570Z,11.12
2018-05-11T00:08:22.840Z,11.16
2018-05-11T00:11:26.262Z,11.18
2018-05-11T00:14:29.592Z,11.26
2018-05-11T00:17:32.865Z,11.21
2018-05-11T00:20:36.112Z,11.20
2018-05-11T00:23:39.384Z,11.15
2018-05-11T00:26:42.670Z,11.16
2018-05-11T00:29:45.921Z,11.16
2018-05-11T00:32:49.193Z,11.21
2018-05-11T00:35:52.502Z,11.04
2018-05-11T00:38:55.779Z,11.13
2018-05-11T00:41:59.037Z,11.14
2018-05-11T00:45:03.085Z,10.98
2018-05-11T00:48:07.103Z,10.98
2018-05-11T00:51:11.305Z,11.09
2018-05-11T00:54:14.384Z,11.01
2018-05-11T00:57:17.698Z,10.80
2018-05-11T01:00:21.714Z,10.89
2018-05-11T01:03:25.733Z,10.90
2018-05-11T01:06:29.778Z,11.00
2018-05-11T01:09:33.070Z,11.13
2018-05-11T01:12:36.350Z,11.13
2018-05-11T01:15:40.361Z,11.10
2018-05-11T01:18:44.379Z,11.10
2018-05-11T01:21:48.416Z,11.12
2018-05-11T01:24:51.674Z,11.16
2018-05-11T01:27:54.929Z,11.15
2018-05-11T01:30:58.189Z,11.04
2018-05-11T01:34:02.228Z,11.11
2018-05-11T01:37:05.561Z,11.21
2018-05-11T01:40:08.823Z,11.17
2018-05-11T01:43:12.214Z,11.18
2018-05-11T01:46:15.528Z,11.17
2018-05-11T01:49:18.780Z,11.19
2018-05-11T01:52:22.830Z,11.20
2018-05-11T01:55:26.086Z,11.11
2018-05-11T01:58:38.692Z,11.13
2018-05-11T02:01:42.574Z,11.17
2018-05-11T02:04:45.832Z,11.02
2018-05-11T02:07:49.855Z,10.99
2018-05-11T02:10:53.878Z,11.14
2018-05-11T02:13:57.130Z,11.02
2018-05-11T02:17:00.556Z,10.82
2018-05-11T02:20:04.569Z,10.64
2018-05-11T02:23:08.587Z,10.66
2018-05-11T02:26:12.621Z,10.83
2018-05-11T02:29:15.885Z,10.94
2018-05-11T02:32:19.937Z,11.10
2018-05-11T02:35:24.227Z,11.20
2018-05-11T02:38:28.351Z,11.19
2018-05-11T02:41:32.382Z,11.24
2018-05-11T02:44:35.666Z,11.33
2018-05-11T02:47:38.938Z,11.16
2018-05-11T02:50:42.282Z,11.18
2018-05-11T02:53:45.555Z,11.36
2018-05-11T02:56:49.580Z,11.24
2018-05-11T02:59:52.859Z,11.22
2018-05-11T03:02:56.884Z,11.21
2018-05-11T03:06:00.933Z,11.27
2018-05-11T03:09:04.189Z,11.24
2018-05-11T03:12:07.453Z,11.28
2018-05-11T03:15:10.739Z,11.27
2018-05-11T03:18:14.025Z,11.31
2018-05-11T03:21:17.357Z,11.29
2018-05-11T03:24:21.342Z,11.42
2018-05-11T03:27:24.605Z,11.33
2018-05-11T03:30:28.625Z,11.51
2018-05-11T03:33:31.874Z,11.49
2018-05-11T03:36:35.134Z,11.38
2018-05-11T03:39:39.154Z,11.34
2018-05-11T03:42:43.182Z,11.42
2018-05-11T03:45:47.367Z,11.51
2018-05-11T03:48:50.694Z,11.19
2018-05-11T03:51:54.717Z,11.28
2018-05-11T03:54:57.961Z,11.24
2018-05-11T03:58:01.477Z,11.29
2018-05-11T04:04:51.362Z,11.54
2018-05-11T04:08:12.451Z,11.58
2018-05-11T04:11:16.472Z,11.42
2018-05-11T04:14:19.730Z,11.64
2018-05-11T04:17:22.987Z,11.39
2018-05-11T04:20:26.257Z,11.71
2018-05-11T04:23:30.346Z,12.03
2018-05-11T04:26:33.840Z,11.88
2018-05-11T04:29:37.084Z,11.68
2018-05-11T04:32:40.837Z,11.53
2018-05-11T04:35:44.081Z,11.60
2018-05-11T04:38:48.150Z,11.62
2018-05-11T04:41:51.447Z,11.66
2018-05-11T04:44:54.690Z,11.77
2018-05-11T04:47:58.711Z,11.91
2018-05-11T04:51:02.746Z,11.90
2018-05-11T04:54:06.038Z,11.89
2018-05-11T04:57:09.297Z,12.17
2018-05-11T05:00:12.575Z,12.20
2018-05-11T05:03:16.000Z,12.31
2018-05-11T05:06:19.253Z,12.38
2018-05-11T05:09:22.781Z,12.43
2018-05-11T05:12:26.057Z,12.44
2018-05-11T05:15:29.304Z,12.55
2018-05-11T05:18:32.553Z,12.35
2018-05-11T05:21:36.671Z,12.38
2018-05-11T05:24:40.707Z,12.49
2018-05-11T05:27:43.976Z,12.50
2018-05-11T05:30:48.008Z,12.47
2018-05-11T05:33:52.022Z,12.62
2018-05-11T05:36:56.079Z,12.83
2018-05-11T05:39:59.511Z,12.98
2018-05-11T05:43:02.763Z,13.24
2018-05-11T05:46:06.234Z,13.51
2018-05-11T05:49:09.482Z,13.64
2018-05-11T05:52:12.743Z,13.56
2018-05-11T05:55:16.835Z,14.30
2018-05-11T05:58:20.148Z,14.89
2018-05-11T06:01:23.400Z,15.65
2018-05-11T06:04:26.683Z,16.66
2018-05-11T06:07:29.946Z,17.26
2018-05-11T06:10:33.208Z,14.65
2018-05-11T06:13:36.461Z,17.34
2018-05-11T06:16:39.737Z,16.10
2018-05-11T06:19:43.877Z,16.68
2018-05-11T06:22:47.146Z,17.69
2018-05-11T06:25:50.410Z,17.01
2018-05-11T06:28:54.446Z,18.14
2018-05-11T06:31:57.703Z,17.17
2018-05-11T06:35:01.042Z,18.22
2018-05-11T06:38:05.106Z,17.41
2018-05-11T06:41:08.450Z,17.70
2018-05-11T06:44:12.453Z,17.77
2018-05-11T06:47:15.743Z,16.00
2018-05-11T06:50:19.034Z,13.86
2018-05-11T06:53:22.301Z,13.71
2018-05-11T06:56:25.562Z,13.78
2018-05-11T06:59:29.582Z,13.88
2018-05-11T07:02:32.882Z,13.74
2018-05-11T07:05:36.937Z,14.73
2018-05-11T07:08:40.313Z,14.43
2018-05-11T07:11:43.569Z,14.49
2018-05-11T07:14:46.826Z,14.43
2018-05-11T07:17:50.112Z,14.90
2018-05-11T07:20:54.235Z,14.21
2018-05-11T07:23:57.489Z,14.65
2018-05-11T07:27:00.777Z,13.92
2018-05-11T07:30:04.058Z,13.87
2018-05-11T07:33:07.313Z,14.15
2018-05-11T07:36:11.351Z,14.32
2018-05-11T07:39:14.608Z,14.15
2018-05-11T07:42:17.869Z,14.36
2018-05-11T07:45:21.251Z,14.14
2018-05-11T07:48:25.277Z,14.55
2018-05-11T07:51:28.566Z,14.68
2018-05-11T07:54:32.036Z,15.09
2018-05-11T07:57:35.353Z,16.01
2018-05-11T08:00:39.388Z,16.47
2018-05-11T08:03:42.651Z,15.56
2018-05-11T08:06:45.909Z,15.49
2018-05-11T08:09:49.174Z,15.74
2018-05-11T08:12:53.361Z,17.17
2018-05-11T08:15:56.663Z,17.76
2018-05-11T08:18:59.915Z,16.36
2018-05-11T08:22:03.186Z,15.27
2018-05-11T08:25:07.311Z,15.08
2018-05-11T08:28:11.336Z,14.95
2018-05-11T08:31:15.365Z,14.79
2018-05-11T08:34:18.617Z,15.41
2018-05-11T08:37:21.877Z,15.90
2018-05-11T08:40:25.162Z,15.17
2018-05-11T08:43:28.410Z,16.67
2018-05-11T08:46:31.706Z,16.38
2018-05-11T08:49:34.954Z,16.77
2018-05-11T08:52:39.178Z,17.26
2018-05-11T08:55:43.217Z,16.71
2018-05-11T08:58:47.219Z,16.92
2018-05-11T09:01:51.346Z,16.48
2018-05-11T09:04:55.362Z,17.07
2018-05-11T09:07:58.635Z,17.23
2018-05-11T09:11:01.921Z,17.41
2018-05-11T09:14:05.180Z,17.99
2018-05-11T09:17:08.452Z,17.99
2018-05-11T09:20:11.758Z,16.80
2018-05-11T09:23:15.778Z,16.59
2018-05-11T09:26:19.048Z,16.86
2018-05-11T09:29:22.303Z,16.93
2018-05-11T09:32:25.687Z,16.96
2018-05-11T09:35:28.935Z,16.72
2018-05-11T09:38:33.123Z,16.43
2018-05-11T09:41:36.406Z,16.25
2018-05-11T09:44:39.666Z,17.69
2018-05-11T09:47:42.930Z,16.99
2018-05-11T09:50:47.461Z,17.41
2018-05-11T09:53:50.709Z,17.67
2018-05-11T09:56:53.957Z,17.99
2018-05-11T09:59:57.222Z,17.38
2018-05-11T10:03:00.488Z,17.58
2018-05-11T10:06:03.773Z,17.72
2018-05-11T10:09:07.034Z,18.04
2018-05-11T10:12:10.299Z,17.45
2018-05-11T10:15:13.617Z,17.24
2018-05-11T10:18:17.028Z,17.46
2018-05-11T10:21:20.297Z,17.50
2018-05-11T10:24:23.779Z,17.66
2018-05-11T10:27:27.796Z,17.68
2018-05-11T10:30:31.822Z,18.06
2018-05-11T10:33:35.073Z,17.44
2018-05-11T10:36:38.337Z,17.95
2018-05-11T10:39:41.634Z,17.70
2018-05-11T10:42:45.216Z,18.27
2018-05-11T10:45:49.351Z,18.45
2018-05-11T10:48:52.696Z,18.49
2018-05-11T10:51:55.893Z,18.73
2018-05-11T10:54:59.150Z,18.95
2018-05-11T10:58:02.473Z,18.92
2018-05-11T11:01:06.487Z,18.93
2018-05-11T11:04:09.833Z,19.23
2018-05-11T11:07:13.228Z,19.59
2018-05-11T11:10:16.524Z,19.57
2018-05-11T11:13:19.841Z,19.49
2018-05-11T11:16:23.516Z,19.36
2018-05-11T11:19:26.802Z,19.33
2018-05-11T11:22:30.053Z,19.57
2018-05-11T11:25:33.302Z,19.06
2018-05-11T11:28:36.573Z,19.05
2018-05-11T11:31:40.734Z,19.13
2018-05-11T11:34:44.089Z,18.97
2018-05-11T11:37:48.056Z,19.18
2018-05-11T11:40:52.139Z,19.43
2018-05-11T11:43:56.267Z,19.59
2018-05-11T11:47:00.305Z,19.20
2018-05-11T11:50:03.592Z,19.50
2018-05-11T11:53:06.850Z,19.52
2018-05-11T11:56:10.371Z,19.69
2018-05-11T11:59:14.634Z,19.64
2018-05-11T12:02:17.889Z,19.70
2018-05-11T12:05:21.918Z,19.83
2018-05-11T12:08:26.760Z,19.89
2018-05-11T12:11:30.810Z,20.28
2018-05-11T12:14:34.061Z,19.80
2018-05-11T12:17:38.932Z,19.60
2018-05-11T12:20:42.192Z,19.64
2018-05-11T12:23:45.465Z,19.92
2018-05-11T12:26:48.728Z,20.11
2018-05-11T12:29:51.985Z,20.53
2018-05-11T12:32:55.362Z,20.38
2018-05-11T12:35:58.676Z,19.95
2018-05-11T12:39:02.705Z,20.05
2018-05-11T12:42:05.978Z,20.23
2018-05-11T12:45:09.228Z,19.67
2018-05-11T12:48:13.250Z,19.74
2018-05-11T12:51:17.269Z,19.58
2018-05-11T12:54:21.297Z,19.64
2018-05-11T12:57:25.330Z,19.90
2018-05-11T13:00:28.625Z,20.09
2018-05-11T13:03:33.384Z,20.42
2018-05-11T13:06:36.685Z,20.35
2018-05-11T13:09:39.954Z,20.44
2018-05-11T13:12:43.984Z,20.82
2018-05-11T13:15:48.017Z,20.48
2018-05-11T13:18:51.300Z,20.22
2018-05-11T13:21:56.274Z,20.27
2018-05-11T13:25:09.872Z,20.37
2018-05-11T13:28:13.571Z,20.77
2018-05-11T13:31:16.980Z,20.92
2018-05-11T13:34:21.043Z,20.37
2018-05-11T13:37:24.289Z,20.46
2018-05-11T13:40:28.597Z,20.77
2018-05-11T13:43:32.162Z,20.64
2018-05-11T13:46:35.429Z,20.41
2018-05-11T13:49:38.722Z,20.53
2018-05-11T13:52:42.753Z,20.45
2018-05-11T13:55:47.523Z,20.26
2018-05-11T13:58:50.791Z,20.24
2018-05-11T14:01:54.834Z,20.13
2018-05-11T14:04:58.096Z,20.11
2018-05-11T14:08:01.389Z,20.29
2018-05-11T14:11:04.741Z,20.47
2018-05-11T14:14:07.995Z,20.56
2018-05-11T14:17:12.446Z,20.63
2018-05-11T14:20:16.731Z,20.16
2018-05-11T14:23:20.059Z,20.31
2018-05-11T14:26:23.320Z,20.43
2018-05-11T14:29:26.629Z,20.56
2018-05-11T14:32:29.957Z,20.55
2018-05-11T14:35:33.230Z,20.36
2018-05-11T14:38:36.550Z,20.45
2018-05-11T14:41:39.812Z,20.53
2018-05-11T14:44:43.123Z,20.61
2018-05-11T14:47:46.402Z,20.71
2018-05-11T14:50:50.442Z,20.33
2018-05-11T14:53:54.447Z,20.63
2018-05-11T14:56:58.541Z,20.58
2018-05-11T15:00:01.829Z,20.23
2018-05-11T15:03:06.163Z,20.22
2018-05-11T15:06:09.437Z,20.11
2018-05-11T15:09:13.061Z,20.26
2018-05-11T15:12:16.329Z,20.22
2018-05-11T15:15:19.580Z,20.44
2018-05-11T15:18:23.042Z,20.72
2018-05-11T15:21:26.336Z,20.81
2018-05-11T15:24:29.729Z,20.82
2018-05-11T15:27:32.995Z,20.94
2018-05-11T15:30:36.293Z,21.04
2018-05-11T15:33:39.575Z,20.88
2018-05-11T15:36:42.837Z,21.01
2018-05-11T15:39:46.963Z,20.89
2018-05-11T15:42:51.021Z,20.72
2018-05-11T15:45:54.300Z,20.62
2018-05-11T15:48:57.549Z,20.69
2018-05-11T15:52:00.853Z,20.89
2018-05-11T15:55:04.143Z,20.69
2018-05-11T15:58:07.414Z,20.56
2018-05-11T16:01:10.731Z,20.72
2018-05-11T16:04:14.020Z,20.94
2018-05-11T16:07:18.050Z,21.08
2018-05-11T16:10:21.358Z,20.58
2018-05-11T16:13:24.732Z,20.49
2018-05-11T16:16:28.754Z,20.40
2018-05-11T16:19:32.793Z,20.39
2018-05-11T16:22:36.081Z,20.54
2018-05-11T16:25:40.921Z,20.70
2018-05-11T16:28:45.185Z,20.60
2018-05-11T16:31:48.460Z,20.51
2018-05-11T16:34:52.595Z,20.54
2018-05-11T16:37:56.764Z,20.51
2018-05-11T16:41:00.038Z,20.58
2018-05-11T16:44:03.307Z,20.40
2018-05-11T16:47:07.342Z,21.12
2018-05-11T16:50:11.562Z,22.18
2018-05-11T16:53:14.739Z,24.55
2018-05-11T16:56:18.001Z,25.00
2018-05-11T16:59:21.293Z,23.14
2018-05-11T17:02:24.558Z,22.71
2018-05-11T17:05:28.677Z,23.90
2018-05-11T17:08:31.997Z,24.54
2018-05-11T17:11:35.263Z,24.03
2018-05-11T17:14:38.578Z,23.59
2018-05-11T17:17:41.834Z,24.19
2018-05-11T17:20:45.097Z,23.67
2018-05-11T17:23:51.144Z,22.08
2018-05-11T17:26:54.505Z,21.31
2018-05-11T17:29:57.775Z,20.78
2018-05-11T17:33:02.960Z,20.57
2018-05-11T17:36:06.259Z,20.46
2018-05-11T17:39:09.526Z,20.35
2018-05-11T17:42:12.860Z,20.26
2018-05-11T17:45:16.142Z,20.02
2018-05-11T17:48:19.406Z,19.90
2018-05-11T17:51:22.753Z,19.85
2018-05-11T17:54:26.016Z,19.79
2018-05-11T17:57:29.331Z,19.73
2018-05-11T18:00:34.736Z,19.64
2018-05-11T18:03:38.003Z,19.57
2018-05-11T18:06:41.398Z,19.53
2018-05-11T18:09:44.601Z,19.44
2018-05-11T18:12:48.476Z,19.33
2018-05-11T18:15:52.539Z,19.24
2018-05-11T18:18:55.817Z,19.20
2018-05-11T18:21:59.094Z,19.04
2018-05-11T18:25:02.357Z,18.96
2018-05-11T18:28:05.631Z,18.87
2018-05-11T18:31:08.885Z,18.73
2018-05-11T18:34:12.166Z,18.63
2018-05-11T18:37:15.441Z,18.53
2018-05-11T18:40:18.706Z,18.39
2018-05-11T18:43:21.993Z,18.27
2018-05-11T18:46:25.249Z,18.17
2018-05-11T18:49:28.508Z,18.11
2018-05-11T18:52:31.783Z,18.03
2018-05-11T18:55:35.829Z,17.93
2018-05-11T18:58:39.081Z,17.82
2018-05-11T19:01:42.493Z,17.70
2018-05-11T19:04:46.171Z,17.62
2018-05-11T19:07:49.908Z,17.52
2018-05-11T19:10:53.290Z,17.42
2018-05-11T19:13:56.617Z,17.36
2018-05-11T19:16:59.930Z,17.32
2018-05-11T19:20:03.284Z,17.23
2018-05-11T19:23:07.307Z,17.13
2018-05-11T19:26:11.423Z,17.05
2018-05-11T19:29:15.465Z,16.86
2018-05-11T19:32:19.483Z,16.81
2018-05-11T19:35:23.130Z,16.77
2018-05-11T19:38:26.545Z,16.70
2018-05-11T19:41:29.864Z,16.58
2018-05-11T19:44:33.356Z,16.49
2018-05-11T19:47:36.639Z,16.42
2018-05-11T19:50:39.914Z,16.36
2018-05-11T19:53:43.593Z,16.33
2018-05-11T19:56:47.785Z,16.25
2018-05-11T19:59:51.163Z,16.24
2018-05-11T20:02:55.191Z,16.12
2018-05-11T20:05:59.248Z,16.06
2018-05-11T20:09:02.501Z,15.99
2018-05-11T20:12:06.619Z,15.89
2018-05-11T20:15:10.670Z,15.81
2018-05-11T20:18:14.004Z,15.77
2018-05-11T20:21:17.453Z,15.71
2018-05-11T20:24:21.539Z,15.65
2018-05-11T20:27:24.812Z,15.60
2018-05-11T20:30:28.072Z,15.57
2018-05-11T20:33:32.152Z,15.49
2018-05-11T20:36:35.403Z,15.43
2018-05-11T20:39:39.114Z,15.37
2018-05-11T20:42:42.421Z,15.27
2018-05-11T20:45:47.567Z,15.16
2018-05-11T20:48:50.821Z,15.13
2018-05-11T20:51:54.205Z,15.01
2018-05-11T20:54:57.499Z,14.93
2018-05-11T20:58:00.819Z,14.93
2018-05-11T21:01:04.072Z,14.93
2018-05-11T21:04:07.347Z,14.79
2018-05-11T21:07:10.609Z,14.75
2018-05-11T21:10:14.793Z,14.68
2018-05-11T21:13:19.625Z,14.73
2018-05-11T21:16:23.078Z,14.60
2018-05-11T21:19:27.177Z,14.53
2018-05-11T21:22:32.972Z,14.48
2018-05-11T21:25:39.254Z,14.43
2018-05-11T21:28:43.524Z,14.47
2018-05-11T21:31:46.852Z,14.46
2018-05-11T21:34:50.409Z,14.32
2018-05-11T21:37:53.687Z,14.32
2018-05-11T21:40:56.965Z,14.14
2018-05-11T21:44:02.338Z,14.08
2018-05-11T21:47:11.150Z,14.00
2018-05-11T21:50:15.330Z,14.04
2018-05-11T21:53:18.825Z,14.07
2018-05-11T21:56:22.116Z,14.06
2018-05-11T21:59:25.471Z,13.93
2018-05-11T22:02:28.741Z,13.83
2018-05-11T22:05:32.020Z,13.80
2018-05-11T22:08:35.344Z,13.77
2018-05-11T22:11:38.606Z,13.80
2018-05-11T22:14:41.885Z,13.65
2018-05-11T22:17:45.911Z,13.68
2018-05-11T22:20:50.025Z,13.71
2018-05-11T22:23:54.055Z,13.60
2018-05-11T22:26:58.074Z,13.56
2018-05-11T22:30:01.332Z,13.45
2018-05-11T22:33:05.374Z,13.40
2018-05-11T22:36:09.411Z,13.35
2018-05-11T22:42:22.145Z,13.40
2018-05-11T22:45:25.430Z,13.30
2018-05-11T22:48:28.743Z,13.11
2018-05-11T22:51:32.083Z,12.29
2018-05-11T22:54:35.588Z,12.20
2018-05-11T22:57:38.923Z,12.26
2018-05-11T23:00:42.311Z,12.38
2018-05-11T23:03:46.535Z,12.44
2018-05-11T23:06:49.713Z,12.57
2018-05-11T23:09:53.001Z,12.40
2018-05-11T23:12:56.329Z,12.55
2018-05-11T23:16:00.395Z,12.73
2018-05-11T23:19:03.664Z,12.65
2018-05-11T23:22:06.921Z,12.68
2018-05-11T23:25:10.174Z,12.74
2018-05-11T23:28:13.424Z,12.80
2018-05-11T23:31:17.461Z,12.80
2018-05-11T23:34:20.730Z,12.78
2018-05-11T23:37:24.014Z,12.74
2018-05-11T23:40:27.271Z,12.77
2018-05-11T23:43:30.533Z,12.72
2018-05-11T23:46:34.012Z,12.68
2018-05-11T23:49:37.268Z,12.64
2018-05-11T23:52:40.757Z,12.67
2018-05-11T23:55:44.028Z,12.54
2018-05-11T23:58:47.375Z,12.56
